Lighthouse Point, Florida
Current Conditions -  °F | °C
As of 5:53 PM on Wednesday 17 Dec 2014 (Local Time) from KPMP Reporting Station
Clear Clear  
Wind Chill: 74°   Ceiling: Unl
Heat Index: 74°   Visibility: 10mi
Dew Point: 54°   Wind: 3mph
Humidity: 50%   Direction: 170°S
Pressure: 30.11"   Gusts: NA
Location:  26.28°N, 80.09°W
Report Text: KPMP 172253Z 17003KT 10SM CLR 23/12 A3011 RMK AO2 SLP197 T02330122
Loading
Personal Weather Stations






























Interactive Weather Map New forecast layout! Learn more

10-Day Weather Forecast

Advertisements
Track Severe Weather on mobile